Time;durP1;ratioP1;P1;durP2;ratioP2;P2;SDS_P1;SDS_P2;PMS_P1;PMS_P2;Temp;Humidity;BMP_temperature;BMP_pressure;BME280_temperature;BME280_humidity;BME280_pressure;Samples;Min_cycle;Max_cycle;Signal;HPM_P1;HPM_P2
2021/08/18 00:02:08;;;;;;;2.33;1.85;;;;;;;16.00;93.91;98000.81;5030883;28;20014;-79
2021/08/18 00:04:34;;;;;;;3.03;2.03;;;;;;;15.99;93.73;97996.44;5029500;28;20549;-77
2021/08/18 00:06:59;;;;;;;4.25;2.63;;;;;;;15.90;94.06;97992.91;5012834;28;20462;-78
2021/08/18 00:09:25;;;;;;;5.05;3.05;;;;;;;15.94;94.94;98004.88;5030529;28;20134;-78
2021/08/18 00:11:50;;;;;;;12.30;6.22;;;;;;;15.83;96.20;98003.63;5029320;28;20470;-78
2021/08/18 00:14:16;;;;;;;7.95;3.70;;;;;;;16.01;94.98;98005.19;5012658;28;20025;-80
2021/08/18 00:16:42;;;;;;;5.75;3.20;;;;;;;16.11;94.12;98004.03;5030451;28;20026;-79
2021/08/18 00:19:07;;;;;;;4.60;2.40;;;;;;;16.05;94.86;98000.63;5012376;28;20037;-79
2021/08/18 00:21:33;;;;;;;8.25;2.15;;;;;;;15.90;95.30;97989.31;5030257;28;20052;-80
2021/08/18 00:23:58;;;;;;;3.60;2.67;;;;;;;15.91;95.78;97993.72;5030375;28;20017;-78
2021/08/18 00:26:27;;;;;;;2.95;2.25;;;;;;;15.98;95.14;97994.81;5028857;28;20042;-79
2021/08/18 00:28:53;;;;;;;7.70;2.10;;;;;;;15.86;96.29;97999.38;5012520;28;20033;-78
2021/08/18 00:31:20;;;;;;;2.40;1.95;;;;;;;15.98;95.45;97988.47;5030444;28;20390;-79
2021/08/18 00:33:46;;;;;;;3.97;2.30;;;;;;;15.86;95.66;97997.44;5012536;28;20104;-78
2021/08/18 00:36:11;;;;;;;2.97;1.77;;;;;;;15.84;96.39;97991.47;5028596;28;20452;-78
2021/08/18 00:38:36;;;;;;;3.97;2.83;;;;;;;15.85;96.54;98003.31;5029917;28;20038;-74
2021/08/18 00:41:02;;;;;;;6.35;2.95;;;;;;;15.78;96.24;97995.53;5012222;28;20036;-75
2021/08/18 00:43:27;;;;;;;6.05;3.42;;;;;;;15.69;97.13;97991.97;5032775;28;20025;-75
2021/08/18 00:45:53;;;;;;;8.18;2.92;;;;;;;15.89;96.57;97996.78;5015470;28;20018;-74
2021/08/18 00:48:18;;;;;;;7.70;3.30;;;;;;;15.81;96.76;97989.34;5028573;28;20033;-76
2021/08/18 00:50:44;;;;;;;7.70;3.60;;;;;;;15.70;97.58;97988.06;5029915;28;20036;-76
2021/08/18 00:53:09;;;;;;;3.95;2.90;;;;;;;15.73;97.35;97997.63;5027109;28;20055;-75
2021/08/18 00:55:35;;;;;;;5.78;2.25;;;;;;;15.70;98.14;97998.28;5027227;28;20064;-74
2021/08/18 00:58:01;;;;;;;7.57;2.40;;;;;;;15.68;97.78;98006.91;5027786;28;20029;-74
2021/08/18 01:00:28;;;;;;;3.63;2.63;;;;;;;15.64;98.22;98000.41;5027555;28;20029;-75
2021/08/18 01:02:53;;;;;;;3.85;2.45;;;;;;;15.58;98.50;97996.19;5029672;28;20023;-74
2021/08/18 01:05:24;;;;;;;6.28;2.55;;;;;;;15.68;97.60;97993.09;5029810;28;20029;-75
2021/08/18 01:07:51;;;;;;;4.10;2.08;;;;;;;15.79;97.29;97994.38;5027790;28;20033;-76
2021/08/18 01:10:20;;;;;;;2.53;1.73;;;;;;;15.84;96.60;97985.94;5029626;28;20052;-75
2021/08/18 01:12:46;;;;;;;4.97;2.20;;;;;;;15.87;96.03;97982.53;5044843;28;20018;-78
2021/08/18 01:15:15;;;;;;;5.45;2.20;;;;;;;15.60;97.77;97976.59;5045385;28;20030;-76
2021/08/18 01:17:46;;;;;;;3.17;2.00;;;;;;;15.40;98.05;97967.81;5029887;28;20030;-74
2021/08/18 01:20:18;;;;;;;4.72;2.33;;;;;;;15.53;98.10;97960.53;5028246;28;20065;-74
2021/08/18 01:22:44;;;;;;;3.63;2.22;;;;;;;15.58;96.88;97948.50;5044972;28;20025;-75
2021/08/18 01:25:10;;;;;;;4.50;2.65;;;;;;;15.60;96.92;97949.00;5028468;28;20078;-75
2021/08/18 01:27:37;;;;;;;6.47;2.08;;;;;;;15.57;96.74;97960.69;5033197;28;20493;-75
2021/08/18 01:30:05;;;;;;;4.00;2.20;;;;;;;15.49;97.19;97960.38;5033063;28;20450;-76
2021/08/18 01:33:00;;;;;;;3.42;2.45;;;;;;;15.72;96.07;97969.25;5031933;28;20045;-74
2021/08/18 01:35:29;;;;;;;3.53;2.67;;;;;;;15.60;97.08;97971.84;5031971;28;20056;-74
2021/08/18 01:37:56;;;;;;;3.63;2.60;;;;;;;15.62;96.93;97985.34;5032969;28;20445;-75
2021/08/18 01:40:23;;;;;;;5.93;2.53;;;;;;;15.87;95.73;97982.53;5033372;28;20037;-75
2021/08/18 01:42:50;;;;;;;4.95;2.92;;;;;;;15.79;94.82;97974.25;5033397;28;20530;-75
2021/08/18 01:45:36;;;;;;;4.15;2.13;;;;;;;15.94;94.75;97969.00;5027995;28;20067;-75
2021/08/18 01:48:09;;;;;;;;;;;;;;;16.11;93.73;97978.38;4998856;28;20033;-75
2021/08/18 01:50:35;;;;;;;3.40;2.15;;;;;;;15.81;94.98;97983.84;5009812;28;19914;-76
2021/08/18 01:53:01;;;;;;;2.50;2.20;;;;;;;15.82;95.10;97987.41;5011435;28;20387;-74
2021/08/18 01:55:27;;;;;;;4.50;2.10;;;;;;;15.96;94.64;98001.81;4995028;28;20029;-74
2021/08/18 01:57:53;;;;;;;3.38;2.03;;;;;;;16.03;94.65;97991.88;4995141;28;20109;-75
2021/08/18 02:00:19;;;;;;;5.03;2.30;;;;;;;15.93;95.98;97997.75;5012646;28;20037;-75
2021/08/18 02:02:45;;;;;;;6.03;1.83;;;;;;;16.20;95.09;97996.50;5014710;28;20033;-75
2021/08/18 02:05:11;;;;;;;3.10;2.20;;;;;;;16.01;96.31;97999.66;5031449;28;20048;-76
2021/08/18 02:07:38;;;;;;;3.80;2.22;;;;;;;16.00;96.55;98009.09;5014669;28;20045;-75
2021/08/18 02:10:07;;;;;;;9.82;3.28;;;;;;;15.84;97.49;98005.25;5032369;28;20036;-75
2021/08/18 02:12:33;;;;;;;3.40;1.95;;;;;;;15.80;97.55;97975.88;5014665;28;20036;-76
2021/08/18 02:14:59;;;;;;;3.90;2.47;;;;;;;15.82;98.12;97990.16;5032904;28;20764;-76
2021/08/18 02:17:24;;;;;;;2.30;1.80;;;;;;;15.88;97.57;97989.63;5014505;28;20041;-76
2021/08/18 02:19:50;;;;;;;2.45;2.03;;;;;;;16.04;96.26;97995.44;5031943;28;20034;-75
2021/08/18 02:22:15;;;;;;;4.97;2.58;;;;;;;15.95;96.93;98006.50;5030705;28;20460;-75
2021/08/18 02:24:41;;;;;;;3.50;2.42;;;;;;;15.92;97.11;98004.41;5014251;28;20025;-75
2021/08/18 02:27:06;;;;;;;6.20;2.10;;;;;;;15.98;96.95;97996.75;5030917;28;20032;-75
2021/08/18 02:29:32;;;;;;;3.28;2.97;;;;;;;16.15;96.42;97995.91;5031993;28;20032;-75
2021/08/18 02:31:57;;;;;;;2.95;2.08;;;;;;;16.14;96.02;98000.59;5030598;28;20375;-75
2021/08/18 02:34:23;;;;;;;3.85;2.42;;;;;;;16.02;96.62;97998.53;5031802;28;20068;-75
2021/08/18 02:36:48;;;;;;;3.22;2.10;;;;;;;16.06;96.65;97995.94;5030028;28;20425;-77
2021/08/18 02:39:14;;;;;;;3.08;2.47;;;;;;;16.18;96.06;98009.84;5008540;28;20109;-76
2021/08/18 02:41:39;;;;;;;5.50;2.35;;;;;;;16.29;95.55;98010.31;4994482;28;20542;-75
2021/08/18 02:44:05;;;;;;;4.88;2.53;;;;;;;15.96;97.14;98004.56;5010725;28;20493;-75
2021/08/18 02:46:30;;;;;;;5.43;2.40;;;;;;;15.99;97.55;98013.00;5012194;28;20849;-75
2021/08/18 02:48:56;;;;;;;3.05;2.17;;;;;;;16.05;96.87;98000.63;5010351;28;20029;-76
2021/08/18 02:51:21;;;;;;;3.95;2.30;;;;;;;16.22;96.39;98005.28;4994266;28;20033;-74
2021/08/18 02:53:46;;;;;;;5.47;2.25;;;;;;;16.19;96.22;97996.88;5010531;28;20010;-74
2021/08/18 02:56:12;;;;;;;4.40;2.17;;;;;;;16.15;96.50;98015.22;5010475;28;20053;-75
2021/08/18 02:58:37;;;;;;;4.32;2.05;;;;;;;16.16;96.35;98005.81;5014669;28;20036;-75
2021/08/18 03:01:03;;;;;;;3.08;2.58;;;;;;;16.14;96.76;98021.88;5016014;28;20018;-75
2021/08/18 03:03:28;;;;;;;3.13;2.15;;;;;;;16.19;96.32;98022.53;5011813;28;20034;-75
2021/08/18 03:05:53;;;;;;;2.35;1.85;;;;;;;16.00;97.13;98013.81;5012125;28;20109;-74
2021/08/18 03:08:19;;;;;;;5.18;2.80;;;;;;;15.95;97.64;98001.00;5011558;28;20084;-74
2021/08/18 03:10:44;;;;;;;3.88;1.95;;;;;;;15.98;97.87;98011.38;5022390;28;20048;-75
2021/08/18 03:13:10;;;;;;;3.33;2.20;;;;;;;15.90;98.31;98009.44;5013689;28;20079;-75
2021/08/18 03:15:35;;;;;;;3.05;2.28;;;;;;;15.98;98.02;98013.31;5015943;28;20033;-75
2021/08/18 03:18:01;;;;;;;6.82;2.17;;;;;;;15.94;97.79;98007.63;5032584;28;20389;-75
2021/08/18 03:20:26;;;;;;;5.28;2.60;;;;;;;15.95;98.11;98012.03;5030863;28;20028;-74
2021/08/18 03:22:52;;;;;;;5.30;3.60;;;;;;;16.03;97.87;98016.72;5030886;28;20040;-75
2021/08/18 03:25:17;;;;;;;2.83;1.95;;;;;;;16.02;97.81;98009.56;5013272;28;20053;-76
2021/08/18 03:27:43;;;;;;;5.78;2.60;;;;;;;15.99;97.83;98001.13;5030941;28;20033;-77
2021/08/18 03:30:09;;;;;;;6.63;2.08;;;;;;;16.21;96.78;98013.88;5013289;28;20117;-75
2021/08/18 03:32:35;;;;;;;2.95;1.75;;;;;;;16.07;97.20;98005.81;5030356;28;20091;-74
2021/08/18 03:35:02;;;;;;;4.70;1.75;;;;;;;16.06;97.23;98004.22;5013164;28;20040;-75
2021/08/18 03:37:27;;;;;;;4.78;2.20;;;;;;;16.18;96.82;98006.28;5029752;28;20525;-75
2021/08/18 03:39:52;;;;;;;4.05;2.20;;;;;;;16.28;95.22;98008.69;5014052;28;20124;-74
2021/08/18 03:42:18;;;;;;;6.18;2.85;;;;;;;16.19;94.88;98003.19;5030483;28;20564;-75
2021/08/18 03:44:43;;;;;;;6.55;2.33;;;;;;;16.11;95.69;98014.25;5031701;28;20116;-74
2021/08/18 03:47:09;;;;;;;3.67;2.20;;;;;;;16.04;95.52;98015.56;5030831;28;20390;-75
2021/08/18 03:49:34;;;;;;;5.40;2.45;;;;;;;16.06;95.48;98018.81;5030261;28;20429;-74
2021/08/18 03:52:00;;;;;;;3.38;2.05;;;;;;;16.14;96.22;98033.72;5030572;28;20087;-74
2021/08/18 03:54:25;;;;;;;4.80;2.22;;;;;;;15.98;97.33;98027.91;5030354;28;20026;-74
2021/08/18 03:56:50;;;;;;;5.45;2.22;;;;;;;15.90;98.57;98036.22;5012806;28;20101;-74
2021/08/18 03:59:16;;;;;;;3.72;2.03;;;;;;;15.91;98.78;98032.34;5030196;28;20029;-74
2021/08/18 04:01:41;;;;;;;9.68;2.05;;;;;;;15.84;98.34;98010.75;5012790;28;20033;-75
2021/08/18 04:04:07;;;;;;;4.57;1.80;;;;;;;16.00;98.36;98030.38;5030270;28;20029;-74
2021/08/18 04:06:32;;;;;;;4.55;2.38;;;;;;;15.96;98.39;98027.44;5029177;28;20490;-74
2021/08/18 04:08:58;;;;;;;4.32;2.22;;;;;;;15.98;98.44;98043.66;5030369;28;20033;-74
2021/08/18 04:11:25;;;;;;;3.38;2.38;;;;;;;16.04;97.97;98029.34;5030280;28;20414;-75
2021/08/18 04:13:50;;;;;;;7.85;2.70;;;;;;;15.98;97.65;98046.41;5030220;28;20037;-75
2021/08/18 04:16:16;;;;;;;7.45;2.50;;;;;;;16.00;98.06;98053.25;5012876;28;20025;-74
2021/08/18 04:18:41;;;;;;;4.70;2.30;;;;;;;15.97;98.23;98042.06;5030023;28;20426;-77
2021/08/18 04:21:06;;;;;;;3.17;2.15;;;;;;;15.97;98.21;98042.88;5012712;28;20030;-74
2021/08/18 04:23:32;;;;;;;4.13;2.67;;;;;;;15.94;98.58;98046.25;5012324;28;20124;-75
2021/08/18 04:25:57;;;;;;;3.38;2.22;;;;;;;16.04;97.78;98043.16;5029150;28;20037;-75
2021/08/18 04:28:23;;;;;;;5.18;2.72;;;;;;;16.01;97.32;98043.81;5012700;28;20083;-75
2021/08/18 04:30:48;;;;;;;5.45;2.63;;;;;;;16.05;97.56;98049.50;5030051;28;20040;-75
2021/08/18 04:33:14;;;;;;;3.38;2.35;;;;;;;15.95;98.21;98047.88;5030143;28;20021;-75
2021/08/18 04:35:39;;;;;;;10.48;2.78;;;;;;;16.00;97.55;98042.22;5012576;28;20025;-75
2021/08/18 04:38:05;;;;;;;4.45;2.08;;;;;;;16.19;97.30;98046.53;5029637;28;20057;-75
2021/08/18 04:40:30;;;;;;;3.65;1.63;;;;;;;16.34;96.02;98048.75;5030101;28;20030;-75
2021/08/18 04:42:56;;;;;;;4.88;2.67;;;;;;;16.30;95.50;98042.28;5030038;28;20029;-74
2021/08/18 04:45:21;;;;;;;8.63;2.88;;;;;;;16.36;93.54;98043.72;5012778;28;20396;-74
2021/08/18 04:47:47;;;;;;;7.10;3.55;;;;;;;16.57;92.19;98044.66;5030024;28;20037;-74
2021/08/18 04:50:14;;;;;;;8.02;2.80;;;;;;;16.71;91.25;98055.44;5011841;28;20037;-74
2021/08/18 04:52:41;;;;;;;8.52;3.45;;;;;;;16.68;90.96;98056.94;5012195;28;20076;-74
2021/08/18 04:55:07;;;;;;;4.20;2.58;;;;;;;16.82;91.11;98053.94;5029830;28;20608;-74
2021/08/18 04:57:32;;;;;;;4.38;2.83;;;;;;;16.94;90.24;98054.84;5029641;28;20037;-74
2021/08/18 04:59:58;;;;;;;3.72;2.53;;;;;;;16.93;88.41;98064.28;5011524;28;20029;-74
2021/08/18 05:02:24;;;;;;;5.10;2.95;;;;;;;16.73;89.24;98065.03;5011556;28;20022;-75
2021/08/18 05:04:49;;;;;;;5.88;3.22;;;;;;;16.74;88.96;98069.41;5029958;28;20026;-74
2021/08/18 05:07:14;;;;;;;4.00;2.95;;;;;;;16.61;89.90;98073.19;5029542;28;20529;-74
2021/08/18 05:09:40;;;;;;;4.07;2.47;;;;;;;16.46;89.18;98079.25;5011846;28;20029;-74
2021/08/18 05:12:06;;;;;;;4.70;2.60;;;;;;;16.68;88.21;98073.50;5029923;28;20581;-75
2021/08/18 05:14:31;;;;;;;4.55;2.35;;;;;;;16.45;87.65;98070.16;5015686;28;20026;-74
2021/08/18 05:16:56;;;;;;;6.00;2.30;;;;;;;16.50;88.45;98077.47;5031864;28;20700;-75
2021/08/18 05:19:22;;;;;;;3.80;2.15;;;;;;;16.65;88.24;98085.22;5011866;28;20063;-75
2021/08/18 05:21:47;;;;;;;3.30;2.25;;;;;;;16.85;87.79;98073.41;5011902;28;20033;-75
2021/08/18 05:24:13;;;;;;;4.10;2.72;;;;;;;17.00;87.77;98081.16;5012035;28;20013;-75
2021/08/18 05:26:38;;;;;;;8.85;3.13;;;;;;;17.08;87.00;98076.69;5029710;28;20121;-74
2021/08/18 05:29:04;;;;;;;4.93;3.17;;;;;;;17.27;86.48;98079.81;5030326;28;20044;-75
2021/08/18 05:31:29;;;;;;;9.15;4.32;;;;;;;17.42;84.73;98095.00;5029918;28;20045;-74
2021/08/18 05:33:55;;;;;;;9.40;3.60;;;;;;;17.80;82.98;98095.72;5011750;28;20117;-76
2021/08/18 05:36:21;;;;;;;5.32;2.92;;;;;;;17.77;82.33;98099.16;5009340;28;20029;-78
2021/08/18 05:38:46;;;;;;;5.38;2.88;;;;;;;17.87;81.41;98082.16;5010266;28;20456;-79
2021/08/18 05:41:12;;;;;;;4.05;2.47;;;;;;;17.94;79.99;98093.50;5012084;28;20033;-80
2021/08/18 05:43:38;;;;;;;4.05;2.60;;;;;;;17.91;79.63;98099.69;5024568;28;20116;-80
2021/08/18 05:46:04;;;;;;;7.45;2.92;;;;;;;17.77;80.67;98099.16;4992823;28;20026;-75
2021/08/18 05:48:29;;;;;;;8.93;4.28;;;;;;;17.47;81.98;98095.63;5009981;28;20030;-78
2021/08/18 05:50:56;;;;;;;4.30;2.92;;;;;;;17.57;81.36;98097.22;5009171;28;20046;-77
2021/08/18 05:53:21;;;;;;;6.30;3.05;;;;;;;17.61;80.83;98093.44;4991546;28;20026;-80
2021/08/18 05:55:50;;;;;;;8.50;3.33;;;;;;;17.88;80.36;98103.16;5025845;28;20049;-79
2021/08/18 05:58:17;;;;;;;7.80;2.97;;;;;;;18.02;80.08;98100.88;5029135;28;20026;-83
2021/08/18 06:00:42;;;;;;;8.40;3.97;;;;;;;18.33;78.93;98099.59;5037666;28;20048;-76
2021/08/18 06:03:09;;;;;;;10.63;3.30;;;;;;;18.62;76.71;98088.38;5018252;28;20021;-85
2021/08/18 06:05:38;;;;;;;6.32;3.88;;;;;;;18.50;76.91;98099.44;5030687;28;20053;-82
2021/08/18 06:08:04;;;;;;;4.50;2.90;;;;;;;18.42;75.88;98086.47;5031198;28;20036;-85
2021/08/18 06:10:30;;;;;;;9.02;2.60;;;;;;;18.86;73.53;98082.84;5012667;28;20029;-81
2021/08/18 06:12:55;;;;;;;5.80;2.38;;;;;;;18.64;70.49;98083.28;5030919;28;20055;-85
2021/08/18 06:15:21;;;;;;;4.32;2.22;;;;;;;18.37;70.93;98086.69;5017547;28;20018;-85
2021/08/18 06:17:47;;;;;;;5.63;3.58;;;;;;;18.46;70.50;98090.16;5037581;28;20047;-88
2021/08/18 06:20:13;;;;;;;5.22;2.15;;;;;;;18.63;67.68;98085.28;5038862;28;20100;-84
2021/08/18 06:22:39;;;;;;;5.32;1.65;;;;;;;18.83;66.26;98091.03;5032879;28;20029;-76
2021/08/18 06:25:05;;;;;;;4.15;1.88;;;;;;;18.91;62.34;98088.19;5014794;28;20032;-75
2021/08/18 06:27:31;;;;;;;5.00;1.58;;;;;;;18.82;63.83;98081.94;5031780;28;20033;-75
2021/08/18 06:29:57;;;;;;;5.90;1.95;;;;;;;18.86;65.11;98091.16;5014546;28;20097;-74
2021/08/18 06:32:23;;;;;;;3.58;1.58;;;;;;;19.39;63.46;98092.09;5014613;28;20017;-75
2021/08/18 06:34:51;;;;;;;2.08;1.48;;;;;;;18.99;61.74;98084.47;5032251;28;20120;-75
2021/08/18 06:37:16;;;;;;;3.25;1.90;;;;;;;19.09;61.69;98088.75;5031884;28;20136;-75
2021/08/18 06:39:41;;;;;;;5.47;2.20;;;;;;;19.15;62.41;98082.63;5031007;28;20179;-74
2021/08/18 06:42:07;;;;;;;4.70;2.00;;;;;;;19.39;61.07;98086.53;5030823;28;20029;-75
2021/08/18 06:44:33;;;;;;;6.47;2.30;;;;;;;19.50;61.40;98082.13;5030902;28;20027;-75
2021/08/18 06:46:58;;;;;;;3.80;1.75;;;;;;;19.07;61.00;98086.34;5030941;28;20025;-76
2021/08/18 06:49:24;;;;;;;2.80;1.75;;;;;;;19.02;60.57;98072.69;5012956;28;20018;-75
2021/08/18 06:51:49;;;;;;;1.90;1.60;;;;;;;18.89;63.07;98093.25;5013530;28;20478;-75
2021/08/18 06:54:15;;;;;;;7.18;1.90;;;;;;;19.05;62.90;98093.34;5031206;28;20552;-75
2021/08/18 06:56:40;;;;;;;5.32;2.67;;;;;;;19.11;62.64;98091.97;5031122;28;20112;-75
2021/08/18 06:59:06;;;;;;;7.70;2.08;;;;;;;19.26;63.00;98097.63;5031038;28;20107;-75
2021/08/18 07:01:31;;;;;;;7.20;2.40;;;;;;;19.21;63.61;98092.31;5012856;28;20025;-75
2021/08/18 07:03:56;;;;;;;5.40;2.65;;;;;;;19.08;62.51;98084.34;5031129;28;20041;-77
2021/08/18 07:06:22;;;;;;;3.47;2.10;;;;;;;19.48;62.77;98090.00;5031819;28;20040;-74
2021/08/18 07:08:47;;;;;;;4.70;2.03;;;;;;;19.43;60.35;98079.94;5031590;28;20065;-75
2021/08/18 07:11:13;;;;;;;3.28;1.83;;;;;;;20.04;57.81;98088.91;5031395;28;20032;-74
2021/08/18 07:13:39;;;;;;;2.25;1.67;;;;;;;20.69;52.94;98095.03;5028907;28;20036;-75
2021/08/18 07:16:05;;;;;;;3.50;2.15;;;;;;;20.74;52.80;98094.75;5031456;28;20048;-74
2021/08/18 07:18:30;;;;;;;2.63;1.65;;;;;;;21.03;51.89;98094.31;5031372;28;20040;-75
2021/08/18 07:20:56;;;;;;;4.53;1.83;;;;;;;21.83;51.42;98088.25;5033152;28;20029;-75
2021/08/18 07:23:21;;;;;;;1.90;1.65;;;;;;;21.70;50.83;98095.91;5030108;28;20507;-75
2021/08/18 07:25:47;;;;;;;2.85;1.52;;;;;;;21.08;52.47;98082.91;5012856;28;20037;-76
2021/08/18 07:28:12;;;;;;;2.35;1.80;;;;;;;20.53;51.95;98091.44;5014001;28;20505;-75
2021/08/18 07:30:38;;;;;;;3.20;1.73;;;;;;;20.99;51.00;98096.19;5017016;28;20036;-75
2021/08/18 07:33:03;;;;;;;2.20;1.65;;;;;;;21.49;50.18;98100.22;5012768;28;20021;-74
2021/08/18 07:35:31;;;;;;;3.33;1.75;;;;;;;21.44;50.96;98087.38;5030236;28;20116;-75
2021/08/18 07:37:56;;;;;;;2.22;1.70;;;;;;;21.55;50.71;98104.31;5029647;28;20114;-73
2021/08/18 07:40:23;;;;;;;2.47;1.95;;;;;;;21.38;51.21;98094.38;5012191;28;20530;-74
2021/08/18 07:42:48;;;;;;;2.70;1.33;;;;;;;20.91;52.31;98093.59;5030051;28;20389;-75
2021/08/18 07:45:14;;;;;;;3.33;1.42;;;;;;;20.71;52.72;98092.69;5012940;28;20017;-76
2021/08/18 07:47:39;;;;;;;3.05;1.73;;;;;;;21.48;52.12;98098.59;5029483;28;20494;-75
2021/08/18 07:50:06;;;;;;;1.50;1.38;;;;;;;20.82;52.12;98099.34;5029512;28;20378;-76
2021/08/18 07:52:31;;;;;;;2.10;1.45;;;;;;;20.93;52.00;98108.75;5029382;28;20450;-77
2021/08/18 07:54:56;;;;;;;2.58;1.63;;;;;;;21.13;50.15;98104.94;5029690;28;20116;-77
2021/08/18 07:57:22;;;;;;;2.47;1.50;;;;;;;21.62;48.14;98105.28;5029426;28;20025;-74
2021/08/18 07:59:51;;;;;;;3.20;1.48;;;;;;;23.10;45.10;98115.78;5011730;28;20009;-78
2021/08/18 08:02:20;;;;;;;2.28;1.50;;;;;;;22.42;44.17;98113.75;5029072;28;20036;-76
2021/08/18 08:04:47;;;;;;;5.05;1.48;;;;;;;22.74;43.51;98108.00;5029289;28;20043;-75
2021/08/18 08:07:12;;;;;;;2.63;1.40;;;;;;;22.04;45.01;98102.63;5028020;28;20374;-78
2021/08/18 08:09:38;;;;;;;2.60;1.73;;;;;;;22.38;45.63;98104.50;5029683;28;20025;-75
2021/08/18 08:12:04;;;;;;;2.05;1.42;;;;;;;23.24;43.43;98098.47;5029389;28;20104;-76
2021/08/18 08:14:29;;;;;;;3.45;2.50;;;;;;;23.21;43.23;98107.59;5029040;28;20038;-79
2021/08/18 08:16:54;;;;;;;2.40;1.33;;;;;;;23.05;41.46;98099.38;5029826;28;20022;-76
2021/08/18 08:19:20;;;;;;;2.90;2.63;;;;;;;23.02;42.15;98108.50;5011806;28;20016;-76
2021/08/18 08:21:46;;;;;;;2.03;1.30;;;;;;;23.11;41.89;98097.88;5030734;28;20033;-76
2021/08/18 08:24:11;;;;;;;1.38;1.20;;;;;;;22.97;43.57;98107.97;5030939;28;20025;-78
2021/08/18 08:26:37;;;;;;;2.70;1.42;;;;;;;22.87;42.34;98101.03;5030525;28;20117;-78
2021/08/18 08:29:02;;;;;;;4.40;1.60;;;;;;;22.43;43.72;98114.53;5021028;28;20040;-77
2021/08/18 08:31:28;;;;;;;2.10;1.50;;;;;;;22.36;42.43;98106.88;5028068;28;20711;-74
2021/08/18 08:33:53;;;;;;;2.88;1.83;;;;;;;23.01;41.60;98101.28;5029045;28;20576;-73
2021/08/18 08:36:19;;;;;;;2.20;1.63;;;;;;;23.30;41.43;98100.56;5010638;28;20026;-72
2021/08/18 08:38:44;;;;;;;3.20;1.38;;;;;;;22.61;42.45;98107.34;5029258;28;20033;-74
2021/08/18 08:41:09;;;;;;;2.35;1.40;;;;;;;23.55;42.67;98106.56;5029954;28;20432;-73
2021/08/18 08:43:37;;;;;;;3.33;1.33;;;;;;;23.68;40.33;98109.94;5029175;28;20524;-73
2021/08/18 08:46:05;;;;;;;3.85;1.65;;;;;;;22.63;42.16;98109.75;5029594;28;20421;-75
2021/08/18 08:48:32;;;;;;;1.95;1.25;;;;;;;22.71;41.83;98100.38;5025058;28;20033;-75
2021/08/18 08:50:58;;;;;;;2.28;1.35;;;;;;;23.05;41.13;98104.94;5027699;28;20033;-74
2021/08/18 08:53:24;;;;;;;2.03;1.30;;;;;;;23.17;40.10;98101.97;5027539;28;20036;-74
2021/08/18 08:55:54;;;;;;;2.58;1.70;;;;;;;22.96;40.17;98110.00;5026495;28;20419;-75
2021/08/18 08:58:20;;;;;;;3.08;1.77;;;;;;;22.62;40.82;98102.53;5028326;28;20026;-74
2021/08/18 09:00:48;;;;;;;2.25;1.48;;;;;;;23.73;40.29;98104.00;5028224;28;20484;-75
2021/08/18 09:03:20;;;;;;;2.30;1.40;;;;;;;23.60;40.34;98099.81;5028178;28;20025;-74
2021/08/18 09:05:46;;;;;;;2.20;1.55;;;;;;;22.71;40.62;98101.16;5028508;28;20705;-74
2021/08/18 09:08:21;;;;;;;5.32;1.80;;;;;;;22.53;40.91;98100.00;5027757;28;20033;-73
2021/08/18 09:11:12;;;;;;;2.33;1.85;;;;;;;22.88;40.62;98105.44;5028834;28;20078;-75
2021/08/18 09:13:46;;;;;;;4.03;2.55;;;;;;;24.18;39.37;98108.63;5008144;28;20029;-75
2021/08/18 09:16:13;;;;;;;8.88;4.05;;;;;;;24.10;39.50;98098.50;5028170;28;20014;-74
2021/08/18 09:18:42;;;;;;;4.10;1.58;;;;;;;23.99;39.03;98099.16;5028515;28;20048;-74
2021/08/18 09:21:35;;;;;;;2.83;1.75;;;;;;;23.66;39.27;98095.53;5028193;28;20039;-74
2021/08/18 09:24:16;;;;;;;5.63;1.80;;;;;;;23.48;39.25;98094.47;5025667;28;20424;-73
2021/08/18 09:26:51;;;;;;;2.20;1.73;;;;;;;23.63;40.38;98097.09;5026143;28;20128;-75
2021/08/18 09:29:31;;;;;;;4.65;1.92;;;;;;;22.69;42.00;98097.13;5025345;28;20038;-75
2021/08/18 09:32:17;;;;;;;4.03;1.70;;;;;;;22.15;41.88;98088.91;5026648;28;20022;-73
2021/08/18 09:34:58;;;;;;;1.75;1.20;;;;;;;22.98;40.68;98092.84;5027476;28;20036;-74
2021/08/18 09:37:25;;;;;;;1.52;1.40;;;;;;;24.05;39.78;98091.28;5022612;28;20073;-74
2021/08/18 09:39:52;;;;;;;2.25;1.55;;;;;;;24.24;38.45;98085.56;5028610;28;20029;-73
2021/08/18 09:42:32;;;;;;;5.43;2.83;;;;;;;23.64;39.60;98097.91;5011339;28;20117;-74
2021/08/18 09:45:13;;;;;;;4.82;1.67;;;;;;;23.82;38.57;98090.56;5052049;28;20080;-76
2021/08/18 09:47:57;;;;;;;6.50;1.92;;;;;;;23.48;40.19;98089.69;5030680;28;20482;-74
2021/08/18 09:50:24;;;;;;;1.95;1.40;;;;;;;23.21;40.13;98074.88;5033226;28;20091;-73
2021/08/18 09:52:51;;;;;;;3.00;1.58;;;;;;;23.65;39.81;98082.75;5014731;28;20021;-76
2021/08/18 09:55:22;;;;;;;2.80;1.70;;;;;;;23.24;40.76;98078.94;5014855;28;20040;-72
2021/08/18 09:57:47;;;;;;;2.08;1.55;;;;;;;23.25;39.40;98075.75;5032958;28;20040;-73
2021/08/18 10:00:13;;;;;;;3.72;1.63;;;;;;;23.47;39.66;98079.69;5015345;28;20029;-74
2021/08/18 10:02:39;;;;;;;3.78;1.52;;;;;;;23.67;38.83;98069.22;5014925;28;20057;-74
2021/08/18 10:05:05;;;;;;;3.33;1.90;;;;;;;23.81;38.00;98070.19;5032474;28;20092;-72
2021/08/18 10:07:31;;;;;;;5.90;1.83;;;;;;;23.98;38.35;98066.84;5032337;28;20542;-74
2021/08/18 10:09:57;;;;;;;1.63;1.48;;;;;;;23.20;39.11;98062.13;5014775;28;20083;-73
2021/08/18 10:12:22;;;;;;;2.60;1.73;;;;;;;23.91;39.14;98057.53;5031515;28;20033;-76
2021/08/18 10:14:48;;;;;;;3.35;2.10;;;;;;;23.98;38.56;98052.03;5032596;28;20112;-77
2021/08/18 10:17:14;;;;;;;3.53;1.55;;;;;;;23.97;38.36;98050.44;5015363;28;20032;-73
2021/08/18 10:19:40;;;;;;;1.75;1.50;;;;;;;24.24;37.52;98054.78;5015065;28;20508;-74
2021/08/18 10:22:06;;;;;;;2.88;1.30;;;;;;;24.25;37.67;98050.78;5031794;28;20083;-74
2021/08/18 10:24:38;;;;;;;6.15;1.40;;;;;;;24.83;36.47;98056.59;5032772;28;20033;-73
2021/08/18 10:27:05;;;;;;;3.90;1.77;;;;;;;25.09;36.06;98046.41;5033435;28;20049;-74
2021/08/18 10:29:36;;;;;;;5.15;1.65;;;;;;;24.13;37.61;98051.06;5015086;28;20033;-74
2021/08/18 10:32:03;;;;;;;2.00;1.42;;;;;;;23.21;38.76;98038.59;5015266;28;20029;-76
2021/08/18 10:34:33;;;;;;;2.47;1.65;;;;;;;23.63;39.14;98034.81;5032732;28;20064;-76
2021/08/18 10:37:12;;;;;;;4.60;1.67;;;;;;;24.21;37.23;98030.38;5033030;28;20034;-77
2021/08/18 10:39:43;;;;;;;1.90;1.33;;;;;;;23.75;37.99;98029.00;5030772;28;20521;-73
2021/08/18 10:42:15;;;;;;;4.57;1.83;;;;;;;23.68;38.93;98026.13;5014879;28;20136;-77
2021/08/18 10:44:46;;;;;;;2.92;1.73;;;;;;;23.56;38.51;98029.13;5011447;28;20036;-76
2021/08/18 10:47:18;;;;;;;3.72;2.10;;;;;;;23.63;38.95;98024.47;5032427;28;20025;-76
2021/08/18 10:49:45;;;;;;;2.03;1.50;;;;;;;23.34;39.96;98020.44;5029440;28;20028;-75
2021/08/18 10:52:11;;;;;;;3.65;1.83;;;;;;;23.66;38.77;98017.31;5030226;28;20060;-77
2021/08/18 10:54:44;;;;;;;6.45;1.58;;;;;;;23.24;38.75;98018.28;5029993;28;20537;-74
2021/08/18 10:57:50;;;;;;;2.22;1.92;;;;;;;23.26;38.86;98015.13;5031430;28;20026;-74
2021/08/18 11:00:35;;;;;;;1.88;1.40;;;;;;;23.54;38.79;98017.53;5030446;28;20036;-76
2021/08/18 11:03:13;;;;;;;1.92;1.30;;;;;;;23.41;39.29;98011.38;5029753;28;20037;-75
2021/08/18 11:05:38;;;;;;;4.57;1.60;;;;;;;23.55;38.73;98006.00;5028544;28;20095;-77
2021/08/18 11:08:12;;;;;;;5.10;2.20;;;;;;;24.05;38.70;98015.00;5029696;28;20466;-74
2021/08/18 11:10:41;;;;;;;7.30;1.70;;;;;;;23.60;38.52;98013.25;5028845;28;20075;-76
2021/08/18 11:13:08;;;;;;;17.00;3.25;;;;;;;23.54;38.37;98009.16;5031225;28;20021;-76
2021/08/18 11:15:33;;;;;;;3.08;1.30;;;;;;;24.10;38.51;98004.25;5013033;28;20037;-77
2021/08/18 11:17:59;;;;;;;3.47;2.08;;;;;;;23.78;37.98;98001.09;5029616;28;20048;-78
2021/08/18 11:20:28;;;;;;;8.23;2.63;;;;;;;23.77;37.86;98007.09;5031098;28;20092;-76
2021/08/18 11:22:59;;;;;;;4.97;3.30;;;;;;;24.10;37.72;98000.66;5029709;28;20025;-75
2021/08/18 11:25:26;;;;;;;2.03;1.45;;;;;;;24.53;37.42;97995.13;5030536;28;20021;-74
2021/08/18 11:27:54;;;;;;;2.47;2.00;;;;;;;24.59;36.21;97997.59;5030811;28;20033;-75
2021/08/18 11:30:26;;;;;;;11.43;3.83;;;;;;;25.06;36.19;98000.38;5026866;28;20025;-74
2021/08/18 11:32:52;;;;;;;10.93;2.33;;;;;;;25.43;35.35;97997.41;5029976;28;20132;-74
2021/08/18 11:35:33;;;;;;;2.47;1.35;;;;;;;24.19;36.72;97985.22;5027732;28;20032;-75